Time;durP1;ratioP1;P1;durP2;ratioP2;P2;SDS_P1;SDS_P2;PMS_P1;PMS_P2;Temp;Humidity;BMP_temperature;BMP_pressure;BME280_temperature;BME280_humidity;BME280_pressure;Samples;Min_cycle;Max_cycle;Signal;HPM_P1;HPM_P2
2024/03/08 00:00:09;;;;;;;8.40;4.93;;;;;;;;;;5030098;28;20044;-62
2024/03/08 00:02:38;;;;;;;7.95;4.70;;;;;;;;;;5031130;28;20126;-63
2024/03/08 00:05:04;;;;;;;9.63;4.97;;;;;;;;;;5031524;28;20037;-63
2024/03/08 00:07:30;;;;;;;8.07;4.70;;;;;;;;;;5029760;28;20034;-62
2024/03/08 00:09:55;;;;;;;8.63;4.63;;;;;;;;;;5031459;28;20478;-62
2024/03/08 00:12:21;;;;;;;9.55;4.28;;;;;;;;;;5031238;28;20140;-62
2024/03/08 00:14:46;;;;;;;10.50;5.72;;;;;;;;;;5031184;28;20551;-62
2024/03/08 00:17:12;;;;;;;11.30;5.65;;;;;;;;;;5031230;28;20138;-62
2024/03/08 00:19:37;;;;;;;11.20;7.00;;;;;;;;;;5031250;28;20087;-63
2024/03/08 00:22:03;;;;;;;12.20;7.20;;;;;;;;;;5029802;28;20065;-64
2024/03/08 00:24:30;;;;;;;9.90;6.13;;;;;;;;;;5031924;28;20407;-61
2024/03/08 00:26:56;;;;;;;7.75;5.22;;;;;;;;;;5033479;28;20045;-61
2024/03/08 00:29:22;;;;;;;9.88;4.70;;;;;;;;;;5033407;28;20039;-61
2024/03/08 00:31:48;;;;;;;10.38;4.82;;;;;;;;;;5034867;28;20060;-62
2024/03/08 00:34:13;;;;;;;7.15;4.40;;;;;;;;;;5033305;28;20049;-63
2024/03/08 00:36:39;;;;;;;7.78;4.50;;;;;;;;;;5034458;28;20447;-64
2024/03/08 00:39:06;;;;;;;7.25;4.35;;;;;;;;;;5034418;28;20037;-63
2024/03/08 00:41:32;;;;;;;7.75;4.40;;;;;;;;;;5034265;28;20098;-61
2024/03/08 00:43:58;;;;;;;6.97;4.30;;;;;;;;;;5033289;28;20025;-61
2024/03/08 00:46:28;;;;;;;7.82;4.43;;;;;;;;;;5034270;28;20041;-61
2024/03/08 00:48:54;;;;;;;6.53;3.72;;;;;;;;;;5033045;28;20178;-61
2024/03/08 00:51:19;;;;;;;6.40;3.75;;;;;;;;;;5034268;28;20530;-62
2024/03/08 00:53:45;;;;;;;6.22;3.50;;;;;;;;;;5034381;28;20047;-62
2024/03/08 00:56:10;;;;;;;8.52;4.13;;;;;;;;;;5034320;28;20053;-62
2024/03/08 00:58:36;;;;;;;9.63;4.85;;;;;;;;;;5034149;28;20069;-62
2024/03/08 01:01:02;;;;;;;9.73;4.93;;;;;;;;;;5034391;28;20307;-62
2024/03/08 01:03:27;;;;;;;7.40;4.30;;;;;;;;;;5033948;28;20091;-61
2024/03/08 01:05:53;;;;;;;7.13;4.25;;;;;;;;;;5034212;28;20037;-63
2024/03/08 01:08:19;;;;;;;6.88;4.32;;;;;;;;;;5032910;28;20037;-62
2024/03/08 01:10:45;;;;;;;8.60;4.15;;;;;;;;;;5032638;28;20438;-61
2024/03/08 01:13:10;;;;;;;6.88;3.70;;;;;;;;;;5033681;28;20554;-62
2024/03/08 01:15:36;;;;;;;7.20;4.22;;;;;;;;;;5033868;28;20475;-63
2024/03/08 01:18:01;;;;;;;5.65;4.00;;;;;;;;;;5032694;28;20464;-62
2024/03/08 01:20:27;;;;;;;9.30;4.68;;;;;;;;;;5033841;28;20069;-62
2024/03/08 01:22:53;;;;;;;8.57;4.80;;;;;;;;;;5033864;28;20037;-62
2024/03/08 01:25:18;;;;;;;6.32;4.15;;;;;;;;;;5034067;28;20128;-62
2024/03/08 01:27:44;;;;;;;7.78;4.95;;;;;;;;;;5033527;28;20033;-62
2024/03/08 01:30:10;;;;;;;7.93;4.40;;;;;;;;;;5033888;28;20029;-61
2024/03/08 01:32:35;;;;;;;8.85;4.40;;;;;;;;;;5031960;28;20038;-62
2024/03/08 01:35:02;;;;;;;9.20;4.93;;;;;;;;;;5033463;28;20055;-62
2024/03/08 01:37:29;;;;;;;11.38;6.13;;;;;;;;;;5032099;28;20570;-62
2024/03/08 01:39:55;;;;;;;13.70;6.65;;;;;;;;;;5033659;28;20112;-61
2024/03/08 01:42:22;;;;;;;17.75;6.88;;;;;;;;;;5032307;28;20411;-62
2024/03/08 01:44:47;;;;;;;9.07;5.47;;;;;;;;;;5032141;28;20491;-61
2024/03/08 01:47:13;;;;;;;14.02;6.97;;;;;;;;;;5032245;28;20091;-61
2024/03/08 01:49:39;;;;;;;12.93;5.80;;;;;;;;;;5033479;28;20123;-62
2024/03/08 01:52:04;;;;;;;10.00;6.28;;;;;;;;;;5033078;28;20041;-63
2024/03/08 01:54:30;;;;;;;10.48;5.72;;;;;;;;;;5033187;28;20041;-62
2024/03/08 01:56:57;;;;;;;9.40;5.63;;;;;;;;;;5033046;28;20041;-63
2024/03/08 01:59:23;;;;;;;15.90;8.63;;;;;;;;;;5033011;28;20438;-63
2024/03/08 02:01:49;;;;;;;11.65;5.32;;;;;;;;;;5033174;28;20124;-63
2024/03/08 02:04:14;;;;;;;9.88;6.15;;;;;;;;;;5033040;28;20142;-62
2024/03/08 02:06:40;;;;;;;14.82;5.30;;;;;;;;;;5048206;28;20048;-63
2024/03/08 02:09:05;;;;;;;7.82;5.20;;;;;;;;;;5031476;28;20505;-61
2024/03/08 02:11:32;;;;;;;10.27;6.68;;;;;;;;;;5033051;28;20163;-63
2024/03/08 02:13:58;;;;;;;10.93;5.63;;;;;;;;;;5031361;28;20037;-61
2024/03/08 02:16:23;;;;;;;5.57;3.85;;;;;;;;;;5032724;28;20099;-64
2024/03/08 02:18:49;;;;;;;9.50;5.07;;;;;;;;;;5031367;28;20482;-62
2024/03/08 02:21:18;;;;;;;8.80;5.57;;;;;;;;;;5031681;28;20052;-61
2024/03/08 02:23:44;;;;;;;11.07;5.97;;;;;;;;;;5032527;28;20129;-63
2024/03/08 02:26:09;;;;;;;7.80;5.07;;;;;;;;;;5032642;28;20041;-64
2024/03/08 02:28:35;;;;;;;7.30;4.57;;;;;;;;;;5031109;28;20068;-62
2024/03/08 02:31:00;;;;;;;8.27;5.25;;;;;;;;;;5032592;28;20087;-62
2024/03/08 02:33:27;;;;;;;13.68;5.85;;;;;;;;;;5032062;28;20510;-63
2024/03/08 02:35:53;;;;;;;8.18;5.40;;;;;;;;;;5032096;28;20470;-63
2024/03/08 02:38:19;;;;;;;9.15;5.95;;;;;;;;;;5032134;28;20061;-61
2024/03/08 02:40:46;;;;;;;10.32;5.40;;;;;;;;;;5032147;28;20038;-61
2024/03/08 02:43:12;;;;;;;9.50;5.00;;;;;;;;;;5030679;28;20043;-62
2024/03/08 02:45:38;;;;;;;8.98;5.32;;;;;;;;;;5031748;28;20124;-63
2024/03/08 02:48:04;;;;;;;9.50;5.28;;;;;;;;;;5030293;28;20124;-63
2024/03/08 02:50:29;;;;;;;12.82;6.43;;;;;;;;;;5031946;28;20044;-63
2024/03/08 02:52:56;;;;;;;12.50;6.65;;;;;;;;;;5032131;28;20091;-63
2024/03/08 02:55:21;;;;;;;13.48;6.18;;;;;;;;;;5032246;28;20189;-63
2024/03/08 02:57:47;;;;;;;12.57;5.30;;;;;;;;;;5032117;28;20208;-61
2024/03/08 03:00:13;;;;;;;11.13;5.55;;;;;;;;;;5032194;28;20038;-63
2024/03/08 03:02:38;;;;;;;10.05;5.68;;;;;;;;;;5031794;28;20047;-63
2024/03/08 03:05:06;;;;;;;10.85;6.15;;;;;;;;;;5030637;28;20029;-62
2024/03/08 03:07:33;;;;;;;12.60;6.07;;;;;;;;;;5031614;28;20037;-62
2024/03/08 03:10:00;;;;;;;9.77;5.38;;;;;;;;;;5032047;28;20029;-61
2024/03/08 03:12:25;;;;;;;10.35;6.32;;;;;;;;;;5031925;28;20120;-62
2024/03/08 03:14:51;;;;;;;11.45;5.45;;;;;;;;;;5031366;28;20547;-62
2024/03/08 03:17:17;;;;;;;12.00;6.05;;;;;;;;;;5030210;28;20044;-63
2024/03/08 03:19:43;;;;;;;11.23;6.47;;;;;;;;;;5031952;28;20426;-62
2024/03/08 03:22:10;;;;;;;9.60;5.57;;;;;;;;;;5030257;28;20120;-62
2024/03/08 03:24:38;;;;;;;13.30;6.78;;;;;;;;;;5030296;28;20053;-61
2024/03/08 03:27:10;;;;;;;12.55;6.72;;;;;;;;;;5030197;28;20560;-62
2024/03/08 03:29:45;;;;;;;12.90;6.53;;;;;;;;;;5031670;28;20034;-61
2024/03/08 03:32:11;;;;;;;12.38;6.53;;;;;;;;;;5031721;28;20048;-62
2024/03/08 03:34:37;;;;;;;10.57;6.53;;;;;;;;;;5031575;28;20483;-62
2024/03/08 03:37:03;;;;;;;12.10;6.55;;;;;;;;;;5031387;28;20052;-63
2024/03/08 03:39:32;;;;;;;12.73;6.85;;;;;;;;;;5031651;28;20037;-61
2024/03/08 03:41:58;;;;;;;11.15;6.75;;;;;;;;;;5013628;28;20029;-61
2024/03/08 03:44:24;;;;;;;15.38;9.40;;;;;;;;;;5030031;28;20044;-63
2024/03/08 03:46:52;;;;;;;13.55;7.05;;;;;;;;;;5030394;28;20069;-63
2024/03/08 03:49:18;;;;;;;18.75;8.90;;;;;;;;;;5031436;28;20128;-62
2024/03/08 03:51:44;;;;;;;11.57;6.72;;;;;;;;;;5031514;28;20042;-63
2024/03/08 03:54:10;;;;;;;16.70;8.18;;;;;;;;;;5031376;28;20041;-61
2024/03/08 03:56:36;;;;;;;11.15;7.60;;;;;;;;;;5029850;28;20041;-63
2024/03/08 03:59:01;;;;;;;14.02;7.78;;;;;;;;;;5033342;28;20047;-63
2024/03/08 04:01:27;;;;;;;16.13;8.77;;;;;;;;;;5035431;28;20495;-64
2024/03/08 04:03:52;;;;;;;21.80;10.15;;;;;;;;;;5035276;28;20033;-62
2024/03/08 04:06:18;;;;;;;19.67;9.45;;;;;;;;;;5035524;28;20120;-62
2024/03/08 04:08:43;;;;;;;18.48;8.90;;;;;;;;;;5035322;28;20071;-62
2024/03/08 04:11:09;;;;;;;21.92;12.02;;;;;;;;;;5035187;28;20112;-63
2024/03/08 04:13:36;;;;;;;22.98;10.35;;;;;;;;;;5033859;28;20514;-62
2024/03/08 04:16:02;;;;;;;14.60;8.30;;;;;;;;;;5033434;28;20490;-61
2024/03/08 04:18:27;;;;;;;16.33;8.32;;;;;;;;;;5035008;28;20026;-60
2024/03/08 04:20:53;;;;;;;12.98;8.30;;;;;;;;;;5033525;28;20088;-62
2024/03/08 04:23:19;;;;;;;11.55;6.55;;;;;;;;;;5033474;28;20069;-63
2024/03/08 04:25:45;;;;;;;13.38;7.38;;;;;;;;;;5034964;28;20037;-61
2024/03/08 04:28:11;;;;;;;10.77;7.00;;;;;;;;;;5034488;28;20033;-61
2024/03/08 04:30:38;;;;;;;14.73;8.25;;;;;;;;;;5034624;28;20041;-64
2024/03/08 04:33:03;;;;;;;14.63;8.15;;;;;;;;;;5033126;28;20065;-62
2024/03/08 04:35:30;;;;;;;13.55;7.78;;;;;;;;;;5034737;28;20136;-61
2024/03/08 04:37:57;;;;;;;12.27;7.57;;;;;;;;;;5034709;28;20029;-62
2024/03/08 04:40:23;;;;;;;12.88;7.72;;;;;;;;;;5034878;28;20068;-63
2024/03/08 04:42:50;;;;;;;14.93;7.95;;;;;;;;;;5034320;28;20060;-61
2024/03/08 04:45:17;;;;;;;14.85;9.30;;;;;;;;;;5033322;28;20395;-63
2024/03/08 04:47:42;;;;;;;11.90;7.35;;;;;;;;;;5016542;28;20129;-63
2024/03/08 04:50:11;;;;;;;12.55;7.68;;;;;;;;;;5034734;28;20132;-61
2024/03/08 04:52:36;;;;;;;12.75;7.05;;;;;;;;;;5016440;28;20048;-62
2024/03/08 04:55:05;;;;;;;14.05;7.55;;;;;;;;;;5033000;28;20041;-62
2024/03/08 04:57:30;;;;;;;10.77;6.78;;;;;;;;;;5034069;28;20042;-63
2024/03/08 04:59:57;;;;;;;12.15;6.40;;;;;;;;;;5033005;28;20183;-62
2024/03/08 05:02:23;;;;;;;14.38;6.28;;;;;;;;;;5033986;28;20041;-63
2024/03/08 05:04:49;;;;;;;13.70;7.10;;;;;;;;;;5034370;28;20033;-61
2024/03/08 05:07:14;;;;;;;10.10;5.45;;;;;;;;;;5016201;28;20110;-63
2024/03/08 05:09:41;;;;;;;8.20;5.25;;;;;;;;;;5032009;28;20033;-61
2024/03/08 05:12:07;;;;;;;13.93;8.35;;;;;;;;;;5034071;28;20033;-62
2024/03/08 05:14:34;;;;;;;15.65;7.78;;;;;;;;;;5033982;28;20395;-60
2024/03/08 05:17:00;;;;;;;14.45;7.22;;;;;;;;;;5032458;28;20537;-61
2024/03/08 05:19:26;;;;;;;15.95;8.35;;;;;;;;;;5033469;28;20053;-63
2024/03/08 05:21:52;;;;;;;21.88;8.93;;;;;;;;;;5032697;28;20045;-63
2024/03/08 05:24:18;;;;;;;16.10;7.32;;;;;;;;;;5016021;28;20495;-62
2024/03/08 05:26:44;;;;;;;11.95;6.55;;;;;;;;;;5033928;28;20036;-63
2024/03/08 05:29:09;;;;;;;12.43;6.40;;;;;;;;;;5032451;28;20045;-63
2024/03/08 05:31:48;;;;;;;12.23;6.05;;;;;;;;;;5032309;28;20037;-63
2024/03/08 05:34:14;;;;;;;12.57;7.38;;;;;;;;;;5033606;28;20061;-61
2024/03/08 05:36:40;;;;;;;10.80;6.82;;;;;;;;;;5033646;28;20045;-64
2024/03/08 05:39:07;;;;;;;9.98;6.65;;;;;;;;;;5015383;28;20562;-61
2024/03/08 05:41:32;;;;;;;10.73;6.47;;;;;;;;;;5033361;28;20042;-63
2024/03/08 05:43:58;;;;;;;14.63;7.60;;;;;;;;;;5033488;28;20030;-62
2024/03/08 05:46:23;;;;;;;13.57;7.28;;;;;;;;;;5033163;28;20037;-62
2024/03/08 05:48:49;;;;;;;11.55;6.45;;;;;;;;;;5032081;28;20041;-62
2024/03/08 05:51:15;;;;;;;13.90;6.45;;;;;;;;;;5033361;28;20103;-63
2024/03/08 05:53:40;;;;;;;8.93;6.15;;;;;;;;;;5033253;28;20084;-62
2024/03/08 05:56:06;;;;;;;11.98;5.43;;;;;;;;;;5032940;28;20049;-62
2024/03/08 05:58:32;;;;;;;10.48;5.85;;;;;;;;;;5031609;28;20041;-62
2024/03/08 06:00:57;;;;;;;11.48;6.15;;;;;;;;;;5033137;28;20038;-61
2024/03/08 06:03:23;;;;;;;9.93;5.82;;;;;;;;;;5033014;28;20091;-62
2024/03/08 06:05:49;;;;;;;8.70;5.47;;;;;;;;;;5031536;28;20499;-64
2024/03/08 06:08:15;;;;;;;9.68;6.15;;;;;;;;;;5032853;28;20083;-60
2024/03/08 06:10:41;;;;;;;9.85;5.50;;;;;;;;;;5033036;28;20466;-63
2024/03/08 06:13:06;;;;;;;11.75;5.68;;;;;;;;;;5032898;28;20060;-62
2024/03/08 06:15:32;;;;;;;10.00;5.97;;;;;;;;;;5032517;28;20157;-63
2024/03/08 06:17:57;;;;;;;10.93;5.90;;;;;;;;;;5031279;28;20029;-61
2024/03/08 06:20:26;;;;;;;11.95;6.43;;;;;;;;;;5030773;28;20526;-63
2024/03/08 06:22:52;;;;;;;13.30;5.78;;;;;;;;;;5031003;28;20069;-63
2024/03/08 06:25:17;;;;;;;13.77;6.25;;;;;;;;;;5032901;28;20140;-61
2024/03/08 06:27:43;;;;;;;11.63;5.97;;;;;;;;;;5032625;28;20460;-62
2024/03/08 06:30:09;;;;;;;10.70;5.85;;;;;;;;;;5032757;28;20037;-62
2024/03/08 06:32:39;;;;;;;11.55;6.75;;;;;;;;;;5032160;28;20605;-63
2024/03/08 06:35:06;;;;;;;14.73;6.63;;;;;;;;;;5032565;28;20041;-62
2024/03/08 06:37:32;;;;;;;11.13;6.05;;;;;;;;;;5032213;28;20052;-63
2024/03/08 06:39:58;;;;;;;13.23;6.10;;;;;;;;;;5032634;28;20403;-62
2024/03/08 06:42:23;;;;;;;10.10;6.30;;;;;;;;;;5032280;28;20052;-62
2024/03/08 06:44:49;;;;;;;10.90;6.07;;;;;;;;;;5032465;28;20037;-62
2024/03/08 06:47:15;;;;;;;13.65;6.72;;;;;;;;;;5032057;28;20525;-63
2024/03/08 06:49:44;;;;;;;12.13;6.80;;;;;;;;;;5014357;28;20029;-62
2024/03/08 06:52:10;;;;;;;14.55;7.07;;;;;;;;;;5031885;28;20171;-64
2024/03/08 06:54:36;;;;;;;12.50;6.28;;;;;;;;;;5030771;28;20526;-60
2024/03/08 06:57:03;;;;;;;12.15;6.45;;;;;;;;;;5030717;28;20042;-63
2024/03/08 06:59:28;;;;;;;10.88;6.88;;;;;;;;;;5031871;28;20087;-62
2024/03/08 07:01:54;;;;;;;12.70;7.55;;;;;;;;;;5030522;28;20041;-63
2024/03/08 07:04:21;;;;;;;14.70;7.18;;;;;;;;;;5032052;28;20037;-62
2024/03/08 07:06:49;;;;;;;13.43;6.90;;;;;;;;;;5031773;28;20044;-61
2024/03/08 07:09:19;;;;;;;11.82;7.25;;;;;;;;;;5031699;28;20087;-62
2024/03/08 07:11:44;;;;;;;11.07;6.68;;;;;;;;;;5030426;28;20111;-62
2024/03/08 07:14:10;;;;;;;8.93;5.68;;;;;;;;;;5031738;28;20045;-63
2024/03/08 07:16:35;;;;;;;13.52;7.00;;;;;;;;;;5031510;28;20049;-65
2024/03/08 07:19:01;;;;;;;13.13;6.65;;;;;;;;;;5030223;28;20029;-61
2024/03/08 07:21:27;;;;;;;13.77;6.28;;;;;;;;;;5031492;28;20120;-63
2024/03/08 07:26:27;;;;;;;10.18;5.10;;;;;;;;;;5031739;28;20502;-62
2024/03/08 07:28:54;;;;;;;9.90;5.75;;;;;;;;;;5031621;28;20128;-62
2024/03/08 07:31:34;;;;;;;8.55;5.63;;;;;;;;;;5030406;28;20413;-62
2024/03/08 07:34:00;;;;;;;11.77;6.43;;;;;;;;;;5030830;28;20057;-62
2024/03/08 07:36:25;;;;;;;8.75;5.40;;;;;;;;;;5031226;28;20048;-63
2024/03/08 07:38:51;;;;;;;8.18;5.70;;;;;;;;;;5031443;28;20152;-62
2024/03/08 07:41:17;;;;;;;10.25;5.75;;;;;;;;;;5031485;28;20041;-63
2024/03/08 07:43:42;;;;;;;9.10;6.05;;;;;;;;;;5013767;28;20038;-60
2024/03/08 07:46:10;;;;;;;9.20;5.32;;;;;;;;;;5031133;28;20113;-64
2024/03/08 07:48:36;;;;;;;10.02;5.40;;;;;;;;;;5031209;28;20080;-63
2024/03/08 07:51:03;;;;;;;9.88;5.75;;;;;;;;;;5031100;28;20045;-62
2024/03/08 07:53:28;;;;;;;9.68;6.05;;;;;;;;;;5031167;28;20408;-62
2024/03/08 07:55:54;;;;;;;11.75;6.47;;;;;;;;;;5030915;28;20052;-64
2024/03/08 07:58:19;;;;;;;11.95;6.90;;;;;;;;;;5031269;28;20041;-61
2024/03/08 08:00:46;;;;;;;11.00;6.13;;;;;;;;;;5031103;28;20450;-63
2024/03/08 08:03:12;;;;;;;14.20;6.70;;;;;;;;;;5030890;28;20060;-62
2024/03/08 08:05:38;;;;;;;10.70;5.65;;;;;;;;;;5031008;28;20040;-62
2024/03/08 08:08:07;;;;;;;12.73;6.25;;;;;;;;;;5030901;28;20120;-61
2024/03/08 08:10:33;;;;;;;8.23;5.90;;;;;;;;;;5030820;28;20029;-63
2024/03/08 08:12:59;;;;;;;8.13;4.82;;;;;;;;;;5012893;28;20033;-62
2024/03/08 08:15:24;;;;;;;9.45;5.25;;;;;;;;;;5029441;28;20050;-61
2024/03/08 08:17:51;;;;;;;10.00;6.05;;;;;;;;;;5030962;28;20033;-63
2024/03/08 08:20:18;;;;;;;9.80;5.28;;;;;;;;;;5013211;28;20511;-62
2024/03/08 08:22:44;;;;;;;6.90;4.95;;;;;;;;;;5030800;28;20499;-62
2024/03/08 08:25:13;;;;;;;10.30;5.05;;;;;;;;;;5031329;28;20049;-62
2024/03/08 08:27:39;;;;;;;8.20;4.82;;;;;;;;;;5031000;28;20037;-62
2024/03/08 08:30:09;;;;;;;9.63;5.70;;;;;;;;;;5029797;28;20049;-62
2024/03/08 08:32:36;;;;;;;8.88;5.82;;;;;;;;;;5030834;28;20045;-62
2024/03/08 08:35:02;;;;;;;8.43;4.78;;;;;;;;;;5031201;28;20128;-62
2024/03/08 08:37:29;;;;;;;8.57;5.18;;;;;;;;;;5030679;28;20407;-62
2024/03/08 08:39:54;;;;;;;8.02;5.15;;;;;;;;;;5029712;28;20041;-62
2024/03/08 08:42:20;;;;;;;8.32;5.75;;;;;;;;;;5030898;28;20041;-63
2024/03/08 08:44:46;;;;;;;9.50;5.47;;;;;;;;;;5032179;28;20033;-62
2024/03/08 08:47:12;;;;;;;9.05;4.95;;;;;;;;;;5033043;28;20041;-64
2024/03/08 08:49:38;;;;;;;8.70;4.88;;;;;;;;;;5034442;28;20053;-62
2024/03/08 08:52:04;;;;;;;11.02;5.57;;;;;;;;;;5034232;28;20042;-63
2024/03/08 08:54:31;;;;;;;12.48;6.50;;;;;;;;;;5034447;28;20038;-63
2024/03/08 08:56:56;;;;;;;14.32;6.60;;;;;;;;;;5032766;28;20472;-63
2024/03/08 08:59:25;;;;;;;10.35;5.85;;;;;;;;;;5034013;28;20040;-63
2024/03/08 09:01:53;;;;;;;9.82;5.45;;;;;;;;;;5034291;28;20037;-64
2024/03/08 09:04:19;;;;;;;9.77;5.38;;;;;;;;;;5034192;28;20495;-61
2024/03/08 09:06:45;;;;;;;8.55;5.90;;;;;;;;;;5033984;28;20037;-63
2024/03/08 09:09:13;;;;;;;9.02;5.53;;;;;;;;;;5033982;28;20034;-61
2024/03/08 09:11:41;;;;;;;16.83;10.93;;;;;;;;;;5033818;28;20036;-62
2024/03/08 09:14:07;;;;;;;11.77;7.20;;;;;;;;;;5033792;28;20049;-62
2024/03/08 09:16:33;;;;;;;12.15;6.03;;;;;;;;;;5033952;28;20041;-60
2024/03/08 09:18:58;;;;;;;10.40;5.53;;;;;;;;;;5033825;28;20084;-63
2024/03/08 09:21:24;;;;;;;9.32;5.45;;;;;;;;;;5032372;28;20499;-63
2024/03/08 09:23:50;;;;;;;8.57;5.00;;;;;;;;;;5033696;28;20398;-63
2024/03/08 09:26:16;;;;;;;10.85;6.38;;;;;;;;;;5033665;28;20347;-65
2024/03/08 09:28:42;;;;;;;8.02;5.20;;;;;;;;;;5033435;28;20541;-63
2024/03/08 09:31:08;;;;;;;10.30;6.78;;;;;;;;;;5032437;28;20067;-65
2024/03/08 09:33:33;;;;;;;7.38;5.18;;;;;;;;;;5032026;28;20080;-61
2024/03/08 09:35:59;;;;;;;7.95;5.15;;;;;;;;;;5033313;28;20052;-64
2024/03/08 09:38:24;;;;;;;10.13;5.95;;;;;;;;;;5031790;28;20033;-65
2024/03/08 09:40:50;;;;;;;11.45;6.75;;;;;;;;;;5033241;28;20388;-63
2024/03/08 09:43:18;;;;;;;9.95;5.55;;;;;;;;;;4999499;28;20034;-63
2024/03/08 09:45:46;;;;;;;10.48;6.35;;;;;;;;;;5031948;28;20029;-63
2024/03/08 09:48:12;;;;;;;12.55;7.18;;;;;;;;;;5033264;28;20124;-63
2024/03/08 09:50:41;;;;;;;11.10;6.32;;;;;;;;;;5033329;28;20436;-61
2024/03/08 09:53:10;;;;;;;8.30;5.22;;;;;;;;;;5033158;28;20376;-61
2024/03/08 09:55:44;;;;;;;9.15;5.20;;;;;;;;;;5031816;28;20049;-62
2024/03/08 10:00:45;;;;;;;10.13;6.78;;;;;;;;;;5032922;28;20095;-63
2024/03/08 10:03:14;;;;;;;8.75;5.88;;;;;;;;;;5032700;28;20029;-62
2024/03/08 10:05:41;;;;;;;17.30;8.73;;;;;;;;;;5031724;28;20032;-63
2024/03/08 10:08:07;;;;;;;11.35;6.40;;;;;;;;;;5032765;28;20087;-62
2024/03/08 10:10:35;;;;;;;13.20;5.82;;;;;;;;;;5032810;28;20037;-64
2024/03/08 10:13:01;;;;;;;15.90;7.95;;;;;;;;;;5032425;28;20041;-64
2024/03/08 10:15:29;;;;;;;18.80;8.98;;;;;;;;;;5031080;28;20041;-63
2024/03/08 10:17:57;;;;;;;14.32;8.13;;;;;;;;;;5031079;28;20064;-63
2024/03/08 10:20:26;;;;;;;16.80;7.78;;;;;;;;;;5032863;28;20033;-62
2024/03/08 10:22:53;;;;;;;16.38;8.95;;;;;;;;;;5031234;28;20040;-62
2024/03/08 10:25:19;;;;;;;15.52;7.80;;;;;;;;;;5031329;28;20033;-62
2024/03/08 10:27:44;;;;;;;15.30;8.30;;;;;;;;;;5014662;28;20124;-62
2024/03/08 10:30:12;;;;;;;15.20;8.98;;;;;;;;;;5032812;28;20107;-62
2024/03/08 10:32:38;;;;;;;15.10;7.53;;;;;;;;;;5032627;28;20053;-62
2024/03/08 10:35:04;;;;;;;14.15;7.78;;;;;;;;;;5032643;28;20376;-63
2024/03/08 10:37:33;;;;;;;12.65;7.97;;;;;;;;;;5032423;28;20044;-62
2024/03/08 10:40:15;;;;;;;11.07;7.63;;;;;;;;;;5032206;28;20118;-61
2024/03/08 10:42:48;;;;;;;10.18;6.68;;;;;;;;;;5030981;28;20037;-63
2024/03/08 10:45:14;;;;;;;11.25;6.80;;;;;;;;;;5031084;28;20033;-62
2024/03/08 10:47:41;;;;;;;9.63;5.53;;;;;;;;;;5032270;28;20491;-62
2024/03/08 10:50:12;;;;;;;10.43;6.03;;;;;;;;;;5030997;28;20045;-62
2024/03/08 10:52:38;;;;;;;10.48;6.18;;;;;;;;;;5030642;28;20388;-62
2024/03/08 10:55:12;;;;;;;16.00;9.57;;;;;;;;;;5031776;28;20057;-63
2024/03/08 10:57:38;;;;;;;11.85;7.07;;;;;;;;;;5032133;28;20039;-62
2024/03/08 11:00:07;;;;;;;10.13;6.05;;;;;;;;;;5032292;28;20080;-61
2024/03/08 11:02:33;;;;;;;11.73;6.50;;;;;;;;;;5032222;28;20458;-62
2024/03/08 11:04:59;;;;;;;11.30;6.57;;;;;;;;;;5032234;28;20045;-62
2024/03/08 11:07:27;;;;;;;9.70;5.90;;;;;;;;;;5031448;28;20029;-63
2024/03/08 11:09:53;;;;;;;10.05;6.63;;;;;;;;;;5031633;28;20129;-63
2024/03/08 11:12:25;;;;;;;11.20;7.22;;;;;;;;;;5031660;28;20064;-64
2024/03/08 11:14:52;;;;;;;10.57;6.95;;;;;;;;;;5014006;28;20033;-62
2024/03/08 11:17:40;;;;;;;12.32;7.50;;;;;;;;;;5030335;28;20515;-62
2024/03/08 11:20:16;;;;;;;15.52;7.75;;;;;;;;;;5029034;28;20041;-63
2024/03/08 11:22:47;;;;;;;13.40;6.50;;;;;;;;;;5030340;28;20033;-62
2024/03/08 11:25:30;;;;;;;14.18;7.70;;;;;;;;;;5031886;28;20407;-62
2024/03/08 11:28:18;;;;;;;19.27;9.68;;;;;;;;;;5031728;28;20045;-61
2024/03/08 11:31:04;;;;;;;18.05;10.20;;;;;;;;;;5031384;28;20566;-63
2024/03/08 11:33:30;;;;;;;18.65;10.55;;;;;;;;;;5029544;28;20089;-63
2024/03/08 11:36:22;;;;;;;11.50;7.07;;;;;;;;;;5031544;28;20049;-62
2024/03/08 11:38:49;;;;;;;10.77;7.32;;;;;;;;;;5030247;28;20045;-62
2024/03/08 11:41:19;;;;;;;15.52;7.32;;;;;;;;;;5031266;28;20562;-62
2024/03/08 11:43:49;;;;;;;13.68;7.45;;;;;;;;;;5031373;28;20132;-62
2024/03/08 11:46:16;;;;;;;12.23;7.78;;;;;;;;;;5031576;28;20030;-62
2024/03/08 11:48:42;;;;;;;13.02;7.85;;;;;;;;;;5031555;28;20048;-64
2024/03/08 11:51:11;;;;;;;13.15;7.38;;;;;;;;;;5013588;28;20061;-62
2024/03/08 11:53:37;;;;;;;14.53;7.87;;;;;;;;;;5030948;28;20045;-62
2024/03/08 11:56:11;;;;;;;12.88;8.35;;;;;;;;;;5029828;28;20307;-63
2024/03/08 11:58:37;;;;;;;10.68;7.30;;;;;;;;;;5031280;28;20048;-63
2024/03/08 12:01:12;;;;;;;12.02;8.05;;;;;;;;;;5031210;28;20399;-63
2024/03/08 12:03:39;;;;;;;10.50;6.15;;;;;;;;;;5029859;28;20065;-61
2024/03/08 12:06:04;;;;;;;15.95;7.25;;;;;;;;;;5031427;28;20037;-63
2024/03/08 12:08:31;;;;;;;11.90;6.85;;;;;;;;;;5031254;28;20399;-63
2024/03/08 12:10:59;;;;;;;11.55;6.40;;;;;;;;;;5031306;28;20025;-63
2024/03/08 12:13:31;;;;;;;13.15;7.43;;;;;;;;;;5031149;28;20037;-60
2024/03/08 12:16:03;;;;;;;10.20;6.50;;;;;;;;;;5031123;28;20041;-61
2024/03/08 12:18:32;;;;;;;11.90;6.68;;;;;;;;;;5031285;28;20471;-62
2024/03/08 12:21:04;;;;;;;14.05;8.15;;;;;;;;;;5034059;28;20033;-62
2024/03/08 12:23:30;;;;;;;12.68;7.82;;;;;;;;;;5034889;28;20045;-63
2024/03/08 12:25:57;;;;;;;12.57;6.55;;;;;;;;;;5034927;28;20040;-62
2024/03/08 12:28:22;;;;;;;12.73;7.80;;;;;;;;;;5033653;28;20041;-63
2024/03/08 12:30:49;;;;;;;12.13;6.80;;;;;;;;;;5034956;28;20040;-61
2024/03/08 12:33:14;;;;;;;12.23;6.82;;;;;;;;;;5034727;28;20065;-62
2024/03/08 12:35:40;;;;;;;12.48;7.38;;;;;;;;;;5034801;28;20049;-65
2024/03/08 12:38:06;;;;;;;10.43;6.32;;;;;;;;;;5034653;28;20038;-62
2024/03/08 12:40:34;;;;;;;11.82;6.25;;;;;;;;;;5033089;28;20137;-63
2024/03/08 12:43:01;;;;;;;12.50;6.82;;;;;;;;;;5034667;28;20044;-61
2024/03/08 12:45:27;;;;;;;15.38;7.78;;;;;;;;;;5034337;28;20052;-61
2024/03/08 12:47:53;;;;;;;11.45;6.90;;;;;;;;;;5034335;28;20029;-62
2024/03/08 12:50:19;;;;;;;12.38;6.00;;;;;;;;;;5034694;28;20037;-64
2024/03/08 12:52:44;;;;;;;8.50;4.90;;;;;;;;;;5034405;28;20044;-63
2024/03/08 12:55:10;;;;;;;9.18;5.88;;;;;;;;;;5034594;28;20049;-63
2024/03/08 12:57:37;;;;;;;11.30;6.85;;;;;;;;;;5034382;28;20037;-61
2024/03/08 13:00:03;;;;;;;10.05;5.70;;;;;;;;;;5032995;28;20118;-62
2024/03/08 13:02:32;;;;;;;9.77;5.38;;;;;;;;;;5034334;28;20391;-63
2024/03/08 13:04:58;;;;;;;11.73;5.53;;;;;;;;;;5034516;28;20068;-62
2024/03/08 13:07:25;;;;;;;11.18;6.05;;;;;;;;;;5033968;28;20036;-63
2024/03/08 13:09:54;;;;;;;9.68;5.75;;;;;;;;;;5034383;28;20051;-61
2024/03/08 13:12:21;;;;;;;11.93;6.05;;;;;;;;;;5015951;28;20411;-63
2024/03/08 13:14:47;;;;;;;10.07;5.45;;;;;;;;;;5034108;28;20037;-63
2024/03/08 13:17:13;;;;;;;10.00;5.55;;;;;;;;;;5034047;28;20041;-62
2024/03/08 13:19:39;;;;;;;9.10;5.20;;;;;;;;;;5034080;28;20088;-62
2024/03/08 13:22:05;;;;;;;8.60;4.90;;;;;;;;;;5032868;28;20034;-63
2024/03/08 13:24:30;;;;;;;9.00;5.38;;;;;;;;;;5034006;28;20038;-61
2024/03/08 13:26:56;;;;;;;7.25;4.70;;;;;;;;;;5032555;28;20029;-64
2024/03/08 13:29:22;;;;;;;10.35;5.40;;;;;;;;;;5033789;28;20041;-62
2024/03/08 13:31:51;;;;;;;8.98;5.13;;;;;;;;;;5032969;28;20039;-62
2024/03/08 13:34:27;;;;;;;12.35;8.07;;;;;;;;;;5033598;28;20076;-63
2024/03/08 13:37:00;;;;;;;12.85;5.68;;;;;;;;;;5032297;28;20045;-63
2024/03/08 13:39:25;;;;;;;8.75;5.82;;;;;;;;;;5032119;28;20037;-62
2024/03/08 13:41:51;;;;;;;10.77;6.18;;;;;;;;;;5033423;28;20472;-63
2024/03/08 13:44:20;;;;;;;10.30;6.28;;;;;;;;;;5033449;28;20034;-61
2024/03/08 13:46:46;;;;;;;8.73;5.30;;;;;;;;;;5033177;28;20510;-61
2024/03/08 13:49:13;;;;;;;8.93;5.57;;;;;;;;;;5033517;28;20072;-63
2024/03/08 13:51:38;;;;;;;12.38;5.40;;;;;;;;;;5033151;28;20034;-63
2024/03/08 13:54:07;;;;;;;10.77;5.85;;;;;;;;;;5033432;28;20514;-62
2024/03/08 13:56:32;;;;;;;10.23;5.97;;;;;;;;;;5033333;28;20144;-62
2024/03/08 13:58:58;;;;;;;14.13;7.10;;;;;;;;;;5033361;28;20163;-63
2024/03/08 14:01:23;;;;;;;10.35;5.72;;;;;;;;;;5032945;28;20063;-63
2024/03/08 14:03:49;;;;;;;12.77;5.57;;;;;;;;;;5033076;28;20041;-63
2024/03/08 14:06:14;;;;;;;8.75;5.70;;;;;;;;;;5032936;28;20044;-63
2024/03/08 14:08:40;;;;;;;8.70;5.68;;;;;;;;;;5032925;28;20049;-63
2024/03/08 14:11:13;;;;;;;10.38;5.32;;;;;;;;;;5032835;28;20034;-63
2024/03/08 14:13:47;;;;;;;9.13;5.13;;;;;;;;;;5031769;28;20040;-63
2024/03/08 14:16:13;;;;;;;8.63;5.38;;;;;;;;;;5032683;28;20053;-62
2024/03/08 14:18:38;;;;;;;13.02;6.22;;;;;;;;;;5032749;28;20056;-62
2024/03/08 14:21:05;;;;;;;10.52;5.43;;;;;;;;;;5032747;28;20411;-62
2024/03/08 14:23:30;;;;;;;11.77;5.65;;;;;;;;;;5032647;28;20514;-63
2024/03/08 14:25:58;;;;;;;9.85;4.82;;;;;;;;;;5032780;28;20038;-64
2024/03/08 14:28:24;;;;;;;11.95;5.72;;;;;;;;;;5032559;28;20029;-61
2024/03/08 14:30:50;;;;;;;12.70;6.63;;;;;;;;;;5032630;28;20095;-64
2024/03/08 14:33:16;;;;;;;10.85;5.72;;;;;;;;;;5032213;28;20526;-62
2024/03/08 14:35:43;;;;;;;9.95;5.07;;;;;;;;;;5032245;28;20045;-62